createdAt,value
2022-08-14T00:01:29.405Z,13.00
2022-08-14T00:04:34.717Z,16.23
2022-08-14T00:07:22.792Z,14.25
2022-08-14T00:10:52.829Z,14.52
2022-08-14T00:13:21.803Z,14.48
2022-08-14T00:16:14.050Z,12.30
2022-08-14T00:19:21.505Z,15.20
2022-08-14T00:22:08.480Z,13.85
2022-08-14T00:24:56.474Z,12.10
2022-08-14T00:27:43.999Z,12.68
2022-08-14T00:30:36.498Z,13.05
2022-08-14T00:33:50.868Z,14.48
2022-08-14T00:36:49.575Z,13.45
2022-08-14T00:39:36.272Z,11.65
2022-08-14T00:42:55.057Z,16.83
2022-08-14T00:45:30.523Z,14.98
2022-08-14T00:48:34.645Z,12.30
2022-08-14T00:51:24.518Z,16.15
2022-08-14T00:54:22.185Z,11.80
2022-08-14T00:57:08.945Z,13.25
2022-08-14T00:59:56.424Z,15.40
2022-08-14T01:02:45.185Z,14.95
2022-08-14T01:05:50.885Z,16.77
2022-08-14T01:08:51.538Z,17.10
2022-08-14T01:11:45.493Z,14.73
2022-08-14T01:14:52.003Z,14.82
2022-08-14T01:18:07.183Z,16.65
2022-08-14T01:21:06.362Z,21.83
2022-08-14T01:23:55.204Z,14.30
2022-08-14T01:26:50.568Z,14.63
2022-08-14T01:29:58.436Z,13.70
2022-08-14T01:32:44.379Z,15.85
2022-08-14T01:36:03.081Z,15.10
2022-08-14T01:38:39.504Z,13.55
2022-08-14T01:41:32.538Z,15.48
2022-08-14T01:44:32.746Z,18.70
2022-08-14T01:47:22.256Z,17.80
2022-08-14T01:50:10.338Z,15.63
2022-08-14T01:52:59.745Z,12.50
2022-08-14T01:55:51.471Z,14.30
2022-08-14T01:58:57.905Z,13.20
2022-08-14T02:01:51.288Z,14.32
2022-08-14T02:04:55.800Z,17.65
2022-08-14T02:08:09.077Z,14.88
2022-08-14T02:11:15.760Z,13.05
2022-08-14T02:14:07.916Z,13.32
2022-08-14T02:16:57.250Z,13.52
2022-08-14T02:19:43.497Z,16.13
2022-08-14T02:22:33.383Z,13.50
2022-08-14T02:25:20.552Z,16.70
2022-08-14T02:28:25.153Z,15.95
2022-08-14T02:31:15.429Z,14.85
2022-08-14T02:34:04.251Z,17.95
2022-08-14T02:37:06.670Z,16.45
2022-08-14T02:39:53.380Z,14.07
2022-08-14T02:42:40.217Z,13.68
2022-08-14T02:45:45.172Z,13.95
2022-08-14T02:49:03.908Z,13.90
2022-08-14T02:51:42.733Z,16.63
2022-08-14T02:54:29.514Z,16.92
2022-08-14T02:57:40.728Z,15.05
2022-08-14T03:00:23.644Z,13.10
2022-08-14T03:03:11.632Z,14.98
2022-08-14T03:05:59.091Z,13.25
2022-08-14T03:08:46.666Z,19.13
2022-08-14T03:11:34.669Z,17.05
2022-08-14T03:14:27.538Z,14.02
2022-08-14T03:17:15.161Z,15.98
2022-08-14T03:20:06.708Z,14.30
2022-08-14T03:23:02.959Z,14.80
2022-08-14T03:25:50.725Z,17.58
2022-08-14T03:28:40.351Z,16.23
2022-08-14T03:31:29.296Z,18.83
2022-08-14T03:34:24.613Z,18.92
2022-08-14T03:37:38.963Z,17.52
2022-08-14T03:40:30.858Z,16.83
2022-08-14T03:43:17.374Z,15.50
2022-08-14T03:46:04.399Z,16.15
2022-08-14T03:49:12.790Z,19.77
2022-08-14T03:52:17.731Z,15.32
2022-08-14T03:55:13.273Z,15.10
2022-08-14T03:58:01.401Z,15.45
2022-08-14T04:00:47.863Z,19.25
2022-08-14T04:03:34.547Z,18.35
2022-08-14T04:06:28.384Z,21.38
2022-08-14T04:09:18.434Z,15.90
2022-08-14T04:12:08.397Z,20.45
2022-08-14T04:15:01.497Z,15.57
2022-08-14T04:17:48.533Z,16.38
2022-08-14T04:20:34.760Z,17.45
2022-08-14T04:23:39.729Z,14.80
2022-08-14T04:26:42.895Z,17.70
2022-08-14T04:29:30.007Z,14.82
2022-08-14T04:33:01.947Z,13.55
2022-08-14T04:35:55.440Z,18.65
2022-08-14T04:38:53.779Z,17.20
2022-08-14T04:41:57.568Z,17.35
2022-08-14T04:44:44.180Z,16.23
2022-08-14T04:47:56.528Z,18.30
2022-08-14T04:50:49.138Z,13.90
2022-08-14T04:53:44.517Z,15.07
2022-08-14T04:56:34.563Z,19.58
2022-08-14T04:59:21.631Z,14.85
2022-08-14T05:02:08.205Z,16.95
2022-08-14T05:04:58.497Z,16.50
2022-08-14T05:07:53.962Z,17.23
2022-08-14T05:10:51.881Z,14.88
2022-08-14T05:14:16.080Z,15.65
2022-08-14T05:16:47.343Z,15.75
2022-08-14T05:19:33.946Z,19.85
2022-08-14T05:22:32.429Z,15.75
2022-08-14T05:25:20.041Z,16.73
2022-08-14T05:28:14.189Z,18.08
2022-08-14T05:31:07.193Z,17.55
2022-08-14T05:33:56.395Z,14.63
2022-08-14T05:36:43.589Z,14.10
2022-08-14T05:39:41.223Z,16.65
2022-08-14T05:42:29.171Z,17.25
2022-08-14T05:45:20.057Z,16.45
2022-08-14T05:48:07.764Z,15.43
2022-08-14T05:50:56.427Z,15.27
2022-08-14T05:53:43.457Z,17.75
2022-08-14T05:56:48.920Z,15.18
2022-08-14T05:59:39.610Z,17.05
2022-08-14T06:02:26.205Z,15.18
2022-08-14T06:05:12.593Z,12.68
2022-08-14T06:07:59.676Z,12.18
2022-08-14T06:10:46.761Z,13.25
2022-08-14T06:13:44.457Z,11.13
2022-08-14T06:16:33.083Z,11.68
2022-08-14T06:19:19.993Z,10.95
2022-08-14T06:22:07.103Z,12.80
2022-08-14T06:24:55.540Z,13.65
2022-08-14T06:27:44.680Z,13.00
2022-08-14T06:30:42.178Z,11.02
2022-08-14T06:35:10.213Z,11.80
2022-08-14T06:36:40.060Z,11.25
2022-08-14T06:39:37.580Z,9.77
2022-08-14T06:42:32.419Z,12.02
2022-08-14T06:45:20.034Z,10.63
2022-08-14T06:48:14.765Z,14.13
2022-08-14T06:51:04.320Z,11.57
2022-08-14T06:53:52.205Z,10.27
2022-08-14T06:56:38.646Z,12.00
2022-08-14T06:59:25.006Z,13.60
2022-08-14T07:02:29.906Z,15.93
2022-08-14T07:05:35.174Z,12.15
2022-08-14T07:08:29.570Z,14.48
2022-08-14T07:11:17.845Z,18.52
2022-08-14T07:14:06.169Z,16.63
2022-08-14T07:16:56.266Z,15.07
2022-08-14T07:19:42.473Z,15.85
2022-08-14T07:22:32.905Z,12.68
2022-08-14T07:25:38.013Z,15.02
2022-08-14T07:28:27.619Z,11.95
2022-08-14T07:31:16.390Z,12.88
2022-08-14T07:34:04.094Z,11.88
2022-08-14T07:36:57.949Z,11.32
2022-08-14T07:39:48.343Z,11.85
2022-08-14T07:42:38.417Z,12.75
2022-08-14T07:45:27.821Z,10.85
2022-08-14T07:48:19.456Z,10.88
2022-08-14T07:51:11.995Z,10.07
2022-08-14T07:53:58.942Z,10.10
2022-08-14T07:56:49.945Z,9.32
2022-08-14T07:59:41.180Z,9.95
2022-08-14T08:02:32.462Z,9.88
2022-08-14T08:05:20.366Z,10.57
2022-08-14T08:08:26.468Z,9.82
2022-08-14T08:11:15.137Z,9.38
2022-08-14T08:14:16.279Z,9.23
2022-08-14T08:17:04.614Z,8.52
2022-08-14T08:19:51.683Z,9.52
2022-08-14T08:22:38.653Z,9.27
2022-08-14T08:25:25.482Z,9.32
2022-08-14T08:28:19.844Z,11.82
2022-08-14T08:31:14.121Z,10.50
2022-08-14T08:34:05.338Z,11.10
2022-08-14T08:36:52.770Z,13.85
2022-08-14T08:40:02.334Z,9.13
2022-08-14T08:42:53.186Z,9.15
2022-08-14T08:45:41.491Z,10.95
2022-08-14T08:48:36.463Z,9.48
2022-08-14T08:51:33.426Z,9.63
2022-08-14T08:54:26.396Z,9.73
2022-08-14T08:57:15.683Z,9.68
2022-08-14T09:00:25.073Z,11.60
2022-08-14T09:03:15.574Z,11.90
2022-08-14T09:06:53.529Z,9.55
2022-08-14T09:09:19.547Z,9.48
2022-08-14T09:12:07.191Z,10.02
2022-08-14T09:15:02.331Z,11.85
2022-08-14T09:17:49.058Z,12.15
2022-08-14T09:20:36.884Z,10.52
2022-08-14T09:23:34.555Z,9.55
2022-08-14T09:26:21.684Z,10.90
2022-08-14T09:29:11.761Z,9.00
2022-08-14T09:32:03.666Z,11.02
2022-08-14T09:35:18.009Z,12.40
2022-08-14T09:38:19.325Z,9.25
2022-08-14T09:42:17.413Z,9.45
2022-08-14T09:44:49.697Z,11.73
2022-08-14T09:47:45.262Z,8.73
2022-08-14T09:50:34.341Z,11.00
2022-08-14T09:54:18.102Z,11.75
2022-08-14T09:56:56.840Z,11.05
2022-08-14T09:59:47.555Z,14.68
2022-08-14T10:02:37.371Z,11.90
2022-08-14T10:05:34.971Z,11.70
2022-08-14T10:08:26.749Z,11.30
2022-08-14T10:11:19.478Z,9.23
2022-08-14T10:14:29.454Z,9.35
2022-08-14T10:17:26.762Z,8.52
2022-08-14T10:20:40.478Z,8.85
2022-08-14T10:23:23.565Z,9.05
2022-08-14T10:26:12.013Z,9.45
2022-08-14T10:29:19.697Z,8.45
2022-08-14T10:32:18.256Z,9.85
2022-08-14T10:35:17.059Z,8.98
2022-08-14T10:38:03.922Z,6.95
2022-08-14T10:40:59.407Z,7.78
2022-08-14T10:44:09.113Z,8.48
2022-08-14T10:47:40.512Z,7.20
2022-08-14T10:50:18.493Z,8.90
2022-08-14T10:53:05.504Z,9.07
2022-08-14T10:56:00.063Z,8.07
2022-08-14T10:58:50.308Z,9.63
2022-08-14T11:01:41.454Z,7.25
2022-08-14T11:04:30.870Z,6.68
2022-08-14T11:07:21.356Z,8.90
2022-08-14T11:10:10.979Z,7.80
2022-08-14T11:12:58.733Z,8.02
2022-08-14T11:15:46.589Z,7.20
2022-08-14T11:18:36.075Z,7.10
2022-08-14T11:21:30.057Z,9.30
2022-08-14T11:24:54.783Z,8.07
2022-08-14T11:27:33.240Z,8.05
2022-08-14T11:30:51.550Z,9.77
2022-08-14T11:33:32.700Z,8.10
2022-08-14T11:36:57.280Z,7.63
2022-08-14T11:39:36.714Z,9.05
2022-08-14T11:42:56.758Z,8.27
2022-08-14T11:45:37.421Z,9.32
2022-08-14T11:48:59.238Z,10.20
2022-08-14T11:51:47.474Z,9.63
2022-08-14T11:54:39.980Z,11.02
2022-08-14T11:57:30.402Z,9.32
2022-08-14T12:00:19.762Z,9.23
2022-08-14T12:03:06.720Z,14.77
2022-08-14T12:05:53.133Z,7.70
2022-08-14T12:08:49.758Z,9.60
2022-08-14T12:11:43.074Z,9.55
2022-08-14T12:14:35.113Z,9.75
2022-08-14T12:17:24.334Z,7.80
2022-08-14T12:20:11.661Z,8.70
2022-08-14T12:23:02.692Z,8.57
2022-08-14T12:26:39.415Z,8.00
2022-08-14T12:29:14.480Z,11.00
2022-08-14T12:32:08.844Z,8.73
2022-08-14T12:34:59.376Z,10.18
2022-08-14T12:37:53.099Z,7.70
2022-08-14T12:40:48.928Z,8.95
2022-08-14T12:43:46.522Z,6.80
2022-08-14T12:46:37.535Z,7.68
2022-08-14T12:49:25.938Z,8.20
2022-08-14T12:52:17.220Z,7.78
2022-08-14T12:55:07.807Z,10.00
2022-08-14T12:57:55.340Z,10.95
2022-08-14T13:01:14.441Z,9.60
2022-08-14T13:04:10.352Z,8.65
2022-08-14T13:07:04.427Z,11.48
2022-08-14T13:09:55.898Z,7.45
2022-08-14T13:13:11.622Z,8.00
2022-08-14T13:15:57.390Z,7.80
2022-08-14T13:18:46.977Z,8.25
2022-08-14T13:21:59.070Z,7.00
2022-08-14T13:24:42.536Z,9.25
2022-08-14T13:27:30.069Z,6.55
2022-08-14T13:30:23.705Z,7.82
2022-08-14T13:33:15.003Z,8.05
2022-08-14T13:36:05.146Z,7.38
2022-08-14T13:38:54.041Z,6.88
2022-08-14T13:41:40.851Z,7.10
2022-08-14T13:44:28.679Z,7.80
2022-08-14T13:47:15.960Z,7.28
2022-08-14T13:50:05.901Z,10.38
2022-08-14T13:52:55.037Z,6.78
2022-08-14T13:55:45.078Z,10.85
2022-08-14T13:58:38.905Z,7.63
2022-08-14T14:01:28.329Z,8.57
2022-08-14T14:04:19.165Z,6.97
2022-08-14T14:07:11.417Z,6.75
2022-08-14T14:10:01.613Z,9.48
2022-08-14T14:12:56.417Z,7.03
2022-08-14T14:15:58.579Z,7.95
2022-08-14T14:18:49.077Z,9.55
2022-08-14T14:21:40.453Z,8.30
2022-08-14T14:24:34.769Z,7.70
2022-08-14T14:27:40.441Z,12.73
2022-08-14T14:30:52.202Z,10.15
2022-08-14T14:33:47.474Z,7.05
2022-08-14T14:36:34.462Z,7.68
2022-08-14T14:39:25.395Z,15.23
2022-08-14T14:42:18.380Z,9.45
2022-08-14T14:45:22.076Z,7.32
2022-08-14T14:48:10.719Z,9.52
2022-08-14T14:51:01.360Z,10.18
2022-08-14T14:53:48.067Z,7.95
2022-08-14T14:56:47.402Z,8.45
2022-08-14T14:59:38.575Z,8.40
2022-08-14T15:02:34.380Z,7.88
2022-08-14T15:05:24.628Z,8.00
2022-08-14T15:08:17.156Z,8.60
2022-08-14T15:11:14.090Z,7.35
2022-08-14T15:14:02.393Z,8.07
2022-08-14T15:17:08.794Z,6.95
2022-08-14T15:19:57.326Z,6.70
2022-08-14T15:22:51.613Z,8.50
2022-08-14T15:25:38.454Z,9.93
2022-08-14T15:28:24.834Z,7.72
2022-08-14T15:31:12.753Z,7.13
2022-08-14T15:34:45.848Z,10.60
2022-08-14T15:37:23.164Z,7.68
2022-08-14T15:40:22.027Z,10.48
2022-08-14T15:43:12.962Z,9.35
2022-08-14T15:46:00.271Z,7.55
2022-08-14T15:48:47.690Z,7.55
2022-08-14T15:51:35.475Z,10.07
2022-08-14T15:54:31.599Z,6.97
2022-08-14T15:57:21.142Z,6.78
2022-08-14T16:00:43.658Z,7.50
2022-08-14T16:03:37.281Z,7.13
2022-08-14T16:06:30.301Z,6.97
2022-08-14T16:09:16.749Z,7.43
2022-08-14T16:12:06.017Z,7.10
2022-08-14T16:14:53.599Z,7.20
2022-08-14T16:17:43.912Z,8.68
2022-08-14T16:20:41.389Z,6.68
2022-08-14T16:23:36.105Z,8.32
2022-08-14T16:26:29.967Z,9.57
2022-08-14T16:29:20.181Z,8.88
2022-08-14T16:32:32.683Z,9.60
2022-08-14T16:35:20.334Z,6.57
2022-08-14T16:38:19.318Z,7.15
2022-08-14T16:41:22.274Z,7.53
2022-08-14T16:44:22.000Z,7.65
2022-08-14T16:47:22.627Z,9.38
2022-08-14T16:50:11.190Z,9.85
2022-08-14T16:53:00.847Z,8.35
2022-08-14T16:55:51.158Z,9.88
2022-08-14T16:58:42.614Z,13.27
2022-08-14T17:01:29.052Z,10.38
2022-08-14T17:04:24.505Z,8.00
2022-08-14T17:07:13.358Z,7.90
2022-08-14T17:10:09.810Z,9.52
2022-08-14T17:13:17.579Z,7.95
2022-08-14T17:16:10.481Z,13.20
2022-08-14T17:19:14.139Z,11.85
2022-08-14T17:22:05.742Z,8.85
2022-08-14T17:25:03.340Z,9.75
2022-08-14T17:28:51.395Z,8.07
2022-08-14T17:31:17.099Z,8.85
2022-08-14T17:34:04.838Z,11.43
2022-08-14T17:36:54.397Z,8.48
2022-08-14T17:39:47.211Z,8.43
2022-08-14T17:42:55.495Z,9.25
2022-08-14T17:45:46.785Z,7.85
2022-08-14T17:49:14.904Z,7.75
2022-08-14T17:52:01.657Z,10.65
2022-08-14T17:54:58.845Z,8.30
2022-08-14T17:57:47.248Z,8.63
2022-08-14T18:00:38.295Z,10.65
2022-08-14T18:03:46.452Z,11.98
2022-08-14T18:06:57.762Z,8.85
2022-08-14T18:09:56.672Z,9.25
2022-08-14T18:12:46.601Z,8.55
2022-08-14T18:15:37.106Z,9.15
2022-08-14T18:18:24.602Z,11.43
2022-08-14T18:21:39.634Z,9.27
2022-08-14T18:24:29.863Z,10.38
2022-08-14T18:27:23.001Z,9.00
2022-08-14T18:30:31.881Z,12.77
2022-08-14T18:33:20.951Z,9.88
2022-08-14T18:36:48.022Z,10.00
2022-08-14T18:39:32.837Z,13.32
2022-08-14T18:42:46.582Z,11.52
2022-08-14T18:45:41.563Z,10.00
2022-08-14T18:48:50.128Z,9.23
2022-08-14T18:51:45.710Z,10.75
2022-08-14T18:54:38.250Z,10.95
2022-08-14T18:57:24.525Z,9.45
2022-08-14T19:00:51.338Z,9.18
2022-08-14T19:03:59.098Z,11.25
2022-08-14T19:06:55.711Z,10.02
2022-08-14T19:09:58.941Z,9.48
2022-08-14T19:13:12.962Z,7.90
2022-08-14T19:16:07.637Z,8.77
2022-08-14T19:19:03.065Z,13.55
2022-08-14T19:21:56.595Z,9.15
2022-08-14T19:24:44.092Z,10.65
2022-08-14T19:27:37.270Z,12.30
2022-08-14T19:30:25.468Z,9.32
2022-08-14T19:33:48.170Z,10.32
2022-08-14T19:37:04.381Z,10.80
2022-08-14T19:39:54.404Z,9.25
2022-08-14T19:42:46.714Z,8.88
2022-08-14T19:45:34.204Z,9.25
2022-08-14T19:48:20.534Z,10.85
2022-08-14T19:51:09.093Z,8.93
2022-08-14T19:54:06.350Z,10.10
2022-08-14T19:57:00.545Z,10.20
2022-08-14T19:59:57.997Z,9.30
2022-08-14T20:02:48.690Z,9.25
2022-08-14T20:05:43.062Z,11.75
2022-08-14T20:10:58.231Z,13.77
2022-08-14T20:12:01.552Z,10.60
2022-08-14T20:14:51.575Z,10.85
2022-08-14T20:17:52.218Z,9.75
2022-08-14T20:20:41.453Z,9.30
2022-08-14T20:23:38.569Z,10.45
2022-08-14T20:26:30.592Z,10.55
2022-08-14T20:29:31.209Z,11.27
2022-08-14T20:32:33.309Z,12.13
2022-08-14T20:35:35.336Z,8.65
2022-08-14T20:38:31.363Z,9.75
2022-08-14T20:41:21.520Z,9.18
2022-08-14T20:44:28.633Z,10.43
2022-08-14T20:47:17.047Z,9.75
2022-08-14T20:50:16.998Z,10.48
2022-08-14T20:53:27.457Z,9.02
2022-08-14T20:56:28.099Z,9.60
2022-08-14T20:59:18.082Z,12.82
2022-08-14T21:02:29.566Z,10.65
2022-08-14T21:05:19.642Z,10.68
2022-08-14T21:08:09.864Z,9.75
2022-08-14T21:11:14.250Z,11.30
2022-08-14T21:14:24.803Z,10.15
2022-08-14T21:17:14.430Z,20.52
2022-08-14T21:20:26.052Z,17.27
2022-08-14T21:23:12.267Z,9.43
2022-08-14T21:25:59.652Z,9.43
2022-08-14T21:28:47.070Z,9.38
2022-08-14T21:31:33.470Z,11.68
2022-08-14T21:34:30.884Z,21.77
2022-08-14T21:37:19.993Z,15.85
2022-08-14T21:40:31.677Z,10.48
2022-08-14T21:43:19.427Z,10.15
2022-08-14T21:46:06.219Z,10.35
2022-08-14T21:48:52.490Z,12.07
2022-08-14T21:51:54.577Z,11.43
2022-08-14T21:54:49.723Z,13.63
2022-08-14T21:58:03.784Z,9.95
2022-08-14T22:00:43.767Z,11.15
2022-08-14T22:03:35.560Z,11.90
2022-08-14T22:06:28.653Z,11.20
2022-08-14T22:09:16.644Z,10.45
2022-08-14T22:12:47.244Z,11.40
2022-08-14T22:15:22.905Z,10.20
2022-08-14T22:18:20.592Z,14.18
2022-08-14T22:21:08.271Z,11.73
2022-08-14T22:24:10.733Z,11.73
2022-08-14T22:27:01.213Z,11.32
2022-08-14T22:29:54.730Z,10.00
2022-08-14T22:32:57.069Z,13.00
2022-08-14T22:35:45.754Z,10.23
2022-08-14T22:38:35.723Z,13.13
2022-08-14T22:41:30.520Z,10.85
2022-08-14T22:44:23.158Z,9.82
2022-08-14T22:47:16.066Z,9.63
2022-08-14T22:50:32.975Z,9.23
2022-08-14T22:53:10.265Z,9.70
2022-08-14T22:55:56.733Z,11.88
2022-08-14T22:58:43.148Z,11.02
2022-08-14T23:01:56.515Z,12.02
2022-08-14T23:04:54.313Z,11.45
2022-08-14T23:09:00.326Z,8.90
2022-08-14T23:10:48.554Z,11.40
2022-08-14T23:13:38.955Z,11.30
2022-08-14T23:16:25.990Z,10.18
2022-08-14T23:19:12.870Z,11.43
2022-08-14T23:22:00.773Z,10.05
2022-08-14T23:24:48.410Z,10.20
2022-08-14T23:28:02.724Z,9.60
2022-08-14T23:30:42.657Z,15.10
2022-08-14T23:33:36.797Z,11.68
2022-08-14T23:36:53.706Z,10.55
2022-08-14T23:39:40.903Z,9.43
2022-08-14T23:42:39.767Z,11.82
2022-08-14T23:45:37.041Z,10.00
2022-08-14T23:48:28.312Z,10.90
2022-08-14T23:51:18.066Z,11.93
2022-08-14T23:54:48.494Z,14.40
2022-08-14T23:57:14.742Z,11.95
